createdAt,value
2017-11-24T00:00:16.837Z,84.84
2017-11-24T00:02:45.216Z,84.94
2017-11-24T00:05:13.564Z,85.00
2017-11-24T00:07:41.913Z,83.90
2017-11-24T00:10:10.249Z,83.64
2017-11-24T00:12:38.604Z,85.45
2017-11-24T00:15:06.976Z,84.25
2017-11-24T00:17:35.324Z,83.96
2017-11-24T00:20:03.664Z,83.13
2017-11-24T00:22:32.003Z,82.80
2017-11-24T00:25:00.344Z,82.33
2017-11-24T00:27:28.724Z,82.93
2017-11-24T00:29:57.066Z,82.27
2017-11-24T00:32:25.403Z,83.32
2017-11-24T00:34:53.744Z,83.74
2017-11-24T00:37:22.092Z,83.45
2017-11-24T00:39:50.489Z,83.62
2017-11-24T00:42:18.838Z,83.57
2017-11-24T00:44:47.212Z,83.22
2017-11-24T00:47:15.544Z,83.71
2017-11-24T00:49:43.876Z,83.17
2017-11-24T00:52:12.214Z,82.70
2017-11-24T00:54:40.554Z,81.51
2017-11-24T00:57:08.921Z,81.17
2017-11-24T00:59:37.252Z,81.59
2017-11-24T01:02:05.601Z,81.83
2017-11-24T01:04:33.937Z,82.29
2017-11-24T01:07:02.279Z,82.07
2017-11-24T01:09:30.667Z,82.37
2017-11-24T01:11:59.012Z,81.53
2017-11-24T01:14:27.376Z,81.31
2017-11-24T01:16:55.710Z,81.53
2017-11-24T01:19:24.048Z,81.28
2017-11-24T01:21:52.416Z,80.82
2017-11-24T01:24:20.747Z,81.74
2017-11-24T01:26:49.079Z,82.12
2017-11-24T01:29:17.428Z,82.67
2017-11-24T01:31:45.803Z,82.17
2017-11-24T01:34:14.152Z,81.27
2017-11-24T01:36:42.518Z,81.58
2017-11-24T01:39:10.873Z,81.57
2017-11-24T01:41:39.207Z,82.01
2017-11-24T01:44:07.554Z,82.05
2017-11-24T01:46:36.051Z,81.75
2017-11-24T01:49:04.383Z,82.62
2017-11-24T01:51:32.724Z,83.38
2017-11-24T01:54:01.060Z,83.72
2017-11-24T01:56:29.413Z,83.23
2017-11-24T01:58:57.782Z,83.18
2017-11-24T02:01:26.125Z,83.60
2017-11-24T02:03:54.470Z,82.25
2017-11-24T02:06:22.799Z,82.72
2017-11-24T02:08:51.136Z,81.92
2017-11-24T02:11:19.513Z,82.04
2017-11-24T02:13:47.860Z,82.16
2017-11-24T02:16:16.486Z,81.79
2017-11-24T02:18:44.830Z,83.04
2017-11-24T02:21:13.180Z,83.78
2017-11-24T02:23:41.550Z,84.00
2017-11-24T02:26:09.882Z,86.79
2017-11-24T02:28:38.237Z,87.50
2017-11-24T02:31:06.568Z,88.49
2017-11-24T02:33:34.923Z,88.00
2017-11-24T02:36:03.288Z,88.47
2017-11-24T02:38:31.632Z,89.53
2017-11-24T02:40:59.972Z,89.83
2017-11-24T02:43:28.317Z,91.56
2017-11-24T02:45:56.649Z,92.18
2017-11-24T02:48:25.120Z,93.00
2017-11-24T02:50:53.463Z,92.66
2017-11-24T02:53:21.801Z,91.35
2017-11-24T02:55:50.150Z,91.52
2017-11-24T02:58:18.507Z,91.87
2017-11-24T03:00:46.973Z,93.74
2017-11-24T03:03:15.323Z,94.18
2017-11-24T03:05:43.652Z,96.50
2017-11-24T03:08:12.008Z,97.90
2017-11-24T03:10:40.468Z,99.08
2017-11-24T03:13:08.811Z,100.00
2017-11-24T03:15:37.160Z,100.00
2017-11-24T03:18:05.511Z,100.00
2017-11-24T03:20:33.862Z,100.00
2017-11-24T03:23:02.272Z,100.00
2017-11-24T03:25:30.612Z,100.00
2017-11-24T03:27:58.974Z,100.00
2017-11-24T03:30:27.342Z,100.00
2017-11-24T03:32:55.708Z,100.00
2017-11-24T03:35:24.083Z,100.00
2017-11-24T03:37:52.455Z,100.00
2017-11-24T03:40:20.801Z,100.00
2017-11-24T03:42:49.149Z,100.00
2017-11-24T03:45:17.497Z,100.00
2017-11-24T03:47:45.848Z,99.88
2017-11-24T03:50:14.223Z,100.00
2017-11-24T03:52:42.590Z,100.00
2017-11-24T03:55:10.936Z,100.00
2017-11-24T03:57:39.282Z,100.00
2017-11-24T04:00:30.277Z,100.00
2017-11-24T04:02:58.659Z,100.00
2017-11-24T04:05:27.060Z,100.00
2017-11-24T04:07:55.399Z,100.00
2017-11-24T04:10:23.760Z,100.00
2017-11-24T04:12:52.134Z,100.00
2017-11-24T04:15:20.488Z,100.00
2017-11-24T04:17:48.840Z,100.00
2017-11-24T04:20:17.204Z,100.00
2017-11-24T04:22:45.550Z,100.00
2017-11-24T04:25:13.941Z,100.00
2017-11-24T04:27:42.303Z,100.00
2017-11-24T04:30:10.645Z,100.00
2017-11-24T04:32:38.994Z,100.00
2017-11-24T04:35:07.361Z,100.00
2017-11-24T04:37:35.995Z,100.00
2017-11-24T04:40:04.348Z,100.00
2017-11-24T04:42:32.713Z,99.76
2017-11-24T04:45:01.057Z,99.79
2017-11-24T04:47:29.402Z,100.00
2017-11-24T04:49:57.751Z,100.00
2017-11-24T04:52:26.100Z,100.00
2017-11-24T04:54:54.566Z,100.00
2017-11-24T04:57:22.912Z,100.00
2017-11-24T04:59:51.291Z,100.00
2017-11-24T05:02:19.634Z,100.00
2017-11-24T05:04:47.975Z,100.00
2017-11-24T05:07:16.445Z,100.00
2017-11-24T05:09:44.791Z,100.00
2017-11-24T05:12:13.135Z,100.00
2017-11-24T05:14:41.507Z,100.00
2017-11-24T05:17:09.855Z,100.00
2017-11-24T05:19:38.228Z,100.00
2017-11-24T05:22:06.592Z,100.00
2017-11-24T05:24:34.945Z,100.00
2017-11-24T05:27:03.284Z,100.00
2017-11-24T05:29:31.640Z,100.00
2017-11-24T05:32:00.047Z,100.00
2017-11-24T05:34:28.384Z,100.00
2017-11-24T05:36:56.751Z,99.36
2017-11-24T05:39:25.095Z,97.79
2017-11-24T05:41:53.436Z,96.53
2017-11-24T05:44:21.778Z,97.30
2017-11-24T05:46:50.127Z,97.49
2017-11-24T05:49:18.492Z,97.31
2017-11-24T05:51:46.844Z,97.21
2017-11-24T05:54:15.184Z,97.19
2017-11-24T05:56:43.525Z,98.41
2017-11-24T05:59:11.869Z,98.54
2017-11-24T06:01:40.243Z,97.48
2017-11-24T06:04:08.584Z,97.06
2017-11-24T06:06:36.926Z,96.04
2017-11-24T06:09:05.263Z,95.89
2017-11-24T06:11:33.610Z,94.51
2017-11-24T06:14:01.984Z,93.88
2017-11-24T06:16:30.316Z,94.37
2017-11-24T06:18:58.678Z,94.32
2017-11-24T06:21:27.213Z,94.03
2017-11-24T06:23:56.293Z,94.25
2017-11-24T06:26:24.702Z,94.57
2017-11-24T06:28:53.055Z,93.97
2017-11-24T06:31:21.393Z,94.23
2017-11-24T06:33:49.737Z,94.19
2017-11-24T06:36:18.096Z,95.02
2017-11-24T06:38:46.465Z,95.95
2017-11-24T06:41:14.806Z,96.62
2017-11-24T06:43:43.228Z,96.48
2017-11-24T06:46:11.577Z,96.50
2017-11-24T06:48:40.324Z,96.66
2017-11-24T06:51:08.709Z,96.51
2017-11-24T06:53:37.049Z,97.06
2017-11-24T06:56:05.383Z,98.06
2017-11-24T06:58:33.723Z,97.16
2017-11-24T07:01:02.067Z,97.34
2017-11-24T07:03:30.450Z,97.00
2017-11-24T07:05:58.798Z,95.44
2017-11-24T07:08:27.164Z,95.29
2017-11-24T07:10:55.497Z,96.33
2017-11-24T07:13:23.848Z,97.58
2017-11-24T07:15:52.213Z,97.04
2017-11-24T07:18:20.557Z,97.68
2017-11-24T07:20:48.924Z,97.12
2017-11-24T07:23:17.275Z,96.92
2017-11-24T07:25:45.600Z,96.45
2017-11-24T07:28:13.968Z,96.07
2017-11-24T07:30:42.309Z,96.00
2017-11-24T07:33:10.648Z,95.28
2017-11-24T07:35:38.996Z,96.36
2017-11-24T07:38:07.335Z,95.83
2017-11-24T07:40:35.711Z,96.29
2017-11-24T07:43:04.044Z,95.94
2017-11-24T07:45:32.391Z,96.37
2017-11-24T07:48:00.732Z,96.68
2017-11-24T07:50:29.073Z,95.72
2017-11-24T07:52:57.452Z,96.04
2017-11-24T07:55:25.795Z,95.82
2017-11-24T07:57:54.171Z,96.09
2017-11-24T08:00:22.511Z,96.05
2017-11-24T08:02:50.852Z,96.15
2017-11-24T08:05:19.275Z,95.68
2017-11-24T08:07:47.614Z,96.08
2017-11-24T08:10:16.837Z,97.29
2017-11-24T08:12:45.188Z,97.29
2017-11-24T08:15:13.534Z,96.82
2017-11-24T08:17:41.913Z,96.71
2017-11-24T08:20:10.264Z,97.40
2017-11-24T08:22:38.609Z,98.16
2017-11-24T08:25:06.951Z,97.55
2017-11-24T08:27:35.292Z,98.86
2017-11-24T08:30:03.685Z,97.21
2017-11-24T08:32:32.020Z,97.06
2017-11-24T08:35:00.364Z,96.64
2017-11-24T08:37:28.712Z,97.02
2017-11-24T08:39:57.065Z,96.70
2017-11-24T08:42:25.432Z,95.72
2017-11-24T08:44:53.774Z,94.12
2017-11-24T08:47:27.764Z,95.10
2017-11-24T08:49:56.101Z,94.57
2017-11-24T08:52:24.436Z,95.55
2017-11-24T08:54:52.775Z,100.00
2017-11-24T08:57:21.137Z,100.00
2017-11-24T08:59:49.515Z,100.00
2017-11-24T09:02:17.881Z,100.00
2017-11-24T09:04:46.219Z,99.78
2017-11-24T09:07:14.577Z,97.30
2017-11-24T09:09:42.912Z,96.07
2017-11-24T09:12:11.285Z,96.65
2017-11-24T09:14:39.631Z,97.29
2017-11-24T09:17:07.965Z,98.20
2017-11-24T09:19:36.313Z,96.11
2017-11-24T09:22:04.651Z,97.53
2017-11-24T09:24:33.031Z,97.24
2017-11-24T09:27:01.372Z,97.49
2017-11-24T09:29:29.712Z,97.32
2017-11-24T09:31:58.060Z,96.76
2017-11-24T09:34:26.399Z,96.38
2017-11-24T09:36:54.772Z,94.82
2017-11-24T09:39:23.104Z,94.80
2017-11-24T09:41:51.456Z,93.96
2017-11-24T09:44:19.794Z,94.41
2017-11-24T09:46:48.143Z,94.63
2017-11-24T09:49:16.519Z,94.91
2017-11-24T09:51:44.864Z,95.26
2017-11-24T09:54:13.211Z,95.35
2017-11-24T09:56:41.571Z,95.58
2017-11-24T09:59:09.912Z,95.48
2017-11-24T10:01:38.386Z,94.74
2017-11-24T10:04:06.717Z,93.96
2017-11-24T10:06:35.053Z,92.91
2017-11-24T10:09:03.395Z,92.59
2017-11-24T10:11:31.748Z,91.63
2017-11-24T10:14:00.224Z,92.06
2017-11-24T10:16:28.568Z,92.32
2017-11-24T10:18:56.910Z,91.07
2017-11-24T10:21:30.729Z,90.93
2017-11-24T10:23:59.071Z,92.89
2017-11-24T10:26:27.422Z,92.32
2017-11-24T10:28:55.784Z,93.44
2017-11-24T10:31:24.154Z,92.09
2017-11-24T10:33:52.492Z,91.44
2017-11-24T10:36:20.835Z,91.36
2017-11-24T10:38:49.176Z,92.41
2017-11-24T10:41:17.522Z,92.01
2017-11-24T10:43:45.904Z,92.54
2017-11-24T10:46:14.261Z,92.81
2017-11-24T10:48:42.638Z,93.90
2017-11-24T10:51:10.987Z,93.51
2017-11-24T10:53:39.331Z,93.42
2017-11-24T10:56:07.690Z,92.25
2017-11-24T10:58:36.027Z,93.09
2017-11-24T11:01:04.396Z,92.06
2017-11-24T11:03:32.744Z,92.86
2017-11-24T11:06:01.095Z,92.36
2017-11-24T11:08:29.441Z,92.14
2017-11-24T11:10:57.820Z,93.29
2017-11-24T11:13:26.170Z,94.17
2017-11-24T11:15:54.515Z,93.88
2017-11-24T11:18:22.858Z,93.28
2017-11-24T11:20:51.215Z,93.98
2017-11-24T11:23:19.597Z,92.31
2017-11-24T11:25:47.934Z,92.73
2017-11-24T11:28:16.276Z,93.34
2017-11-24T11:30:44.631Z,91.32
2017-11-24T11:33:12.980Z,91.25
2017-11-24T11:35:41.364Z,91.78
2017-11-24T11:38:09.702Z,91.73
2017-11-24T11:40:38.039Z,91.64
2017-11-24T11:43:06.386Z,91.61
2017-11-24T11:45:34.745Z,90.69
2017-11-24T11:48:03.109Z,91.26
2017-11-24T11:50:31.460Z,92.11
2017-11-24T11:52:59.791Z,92.21
2017-11-24T11:55:28.139Z,91.06
2017-11-24T11:57:56.480Z,90.63
2017-11-24T12:00:24.862Z,89.12
2017-11-24T12:02:53.215Z,90.34
2017-11-24T12:05:21.556Z,90.38
2017-11-24T12:07:49.909Z,91.79
2017-11-24T12:10:18.257Z,90.28
2017-11-24T12:12:46.642Z,90.07
2017-11-24T12:15:14.975Z,88.77
2017-11-24T12:17:43.330Z,88.58
2017-11-24T12:20:11.677Z,88.33
2017-11-24T12:22:40.012Z,88.23
2017-11-24T12:25:08.392Z,87.85
2017-11-24T12:27:36.737Z,87.63
2017-11-24T12:30:05.080Z,89.45
2017-11-24T12:32:33.427Z,88.61
2017-11-24T12:35:01.789Z,88.15
2017-11-24T12:37:30.168Z,88.33
2017-11-24T12:39:58.611Z,87.20
2017-11-24T12:42:26.958Z,86.46
2017-11-24T12:44:55.334Z,85.86
2017-11-24T12:47:23.689Z,86.66
2017-11-24T12:49:52.053Z,87.00
2017-11-24T12:52:20.404Z,87.63
2017-11-24T12:54:48.748Z,87.94
2017-11-24T12:57:17.128Z,88.98
2017-11-24T12:59:45.470Z,89.31
2017-11-24T13:02:13.827Z,90.41
2017-11-24T13:04:42.163Z,91.48
2017-11-24T13:07:10.660Z,90.78
2017-11-24T13:09:39.028Z,91.00
2017-11-24T13:12:07.384Z,92.35
2017-11-24T13:14:35.736Z,92.76
2017-11-24T13:17:04.071Z,94.38
2017-11-24T13:19:32.412Z,92.75
2017-11-24T13:22:00.781Z,89.90
2017-11-24T13:24:29.152Z,90.47
2017-11-24T13:26:57.491Z,91.11
2017-11-24T13:29:25.842Z,90.83
2017-11-24T13:31:54.177Z,92.31
2017-11-24T13:34:22.823Z,90.81
2017-11-24T13:36:51.200Z,91.15
2017-11-24T13:39:19.537Z,92.44
2017-11-24T13:41:47.887Z,91.16
2017-11-24T13:44:16.240Z,90.19
2017-11-24T13:46:45.475Z,91.93
2017-11-24T13:49:13.948Z,92.15
2017-11-24T13:51:42.298Z,92.03
2017-11-24T13:54:10.647Z,89.91
2017-11-24T13:56:38.983Z,89.59
2017-11-24T13:59:07.332Z,88.71
2017-11-24T14:01:35.672Z,89.65
2017-11-24T14:04:04.045Z,88.14
2017-11-24T14:06:32.392Z,89.27
2017-11-24T14:09:00.743Z,91.50
2017-11-24T14:11:29.080Z,91.09
2017-11-24T14:13:57.435Z,90.29
2017-11-24T14:16:25.799Z,90.83
2017-11-24T14:18:54.143Z,90.61
2017-11-24T14:21:22.505Z,90.28
2017-11-24T14:23:50.839Z,89.38
2017-11-24T14:26:19.180Z,88.87
2017-11-24T14:28:47.543Z,88.77
2017-11-24T14:31:15.889Z,88.85
2017-11-24T14:33:44.224Z,89.39
2017-11-24T14:36:12.570Z,88.52
2017-11-24T14:38:41.047Z,88.85
2017-11-24T14:41:09.388Z,87.41
2017-11-24T14:43:37.730Z,88.45
2017-11-24T14:46:06.092Z,88.16
2017-11-24T14:48:34.466Z,87.73
2017-11-24T14:51:02.974Z,88.55
2017-11-24T14:53:31.367Z,88.61
2017-11-24T14:55:59.700Z,89.43
2017-11-24T14:58:28.037Z,89.08
2017-11-24T15:00:56.393Z,88.46
2017-11-24T15:03:24.853Z,87.62
2017-11-24T15:05:53.200Z,87.99
2017-11-24T15:08:21.537Z,87.68
2017-11-24T15:10:49.872Z,87.67
2017-11-24T15:13:18.221Z,87.36
2017-11-24T15:15:46.606Z,85.93
2017-11-24T15:18:14.944Z,85.54
2017-11-24T15:20:43.284Z,85.69
2017-11-24T15:23:11.632Z,86.53
2017-11-24T15:25:39.980Z,86.37
2017-11-24T15:28:08.341Z,87.54
2017-11-24T15:30:36.681Z,87.90
2017-11-24T15:33:05.016Z,86.17
2017-11-24T15:35:33.365Z,86.65
2017-11-24T15:38:01.708Z,85.57
2017-11-24T15:40:30.076Z,85.41
2017-11-24T15:42:58.449Z,86.24
2017-11-24T15:45:26.824Z,85.32
2017-11-24T15:47:55.164Z,85.89
2017-11-24T15:50:23.509Z,86.33
2017-11-24T15:52:51.880Z,85.61
2017-11-24T15:55:20.224Z,81.91
2017-11-24T15:57:48.567Z,80.86
2017-11-24T16:00:16.925Z,78.96
2017-11-24T16:02:45.279Z,78.58
2017-11-24T16:05:13.647Z,79.48
2017-11-24T16:07:42.001Z,78.87
2017-11-24T16:10:10.350Z,79.99
2017-11-24T16:12:38.685Z,80.07
2017-11-24T16:15:07.025Z,80.77
2017-11-24T16:17:35.403Z,79.96
2017-11-24T16:20:03.744Z,81.29
2017-11-24T16:22:32.138Z,81.47
2017-11-24T16:25:00.483Z,81.11
2017-11-24T16:27:28.832Z,82.01
2017-11-24T16:29:57.306Z,81.67
2017-11-24T16:32:25.685Z,81.46
2017-11-24T16:34:54.104Z,80.48
2017-11-24T16:37:22.464Z,79.83
2017-11-24T16:39:50.803Z,79.19
2017-11-24T16:42:19.471Z,80.78
2017-11-24T16:44:48.075Z,81.14
2017-11-24T16:47:16.492Z,81.70
2017-11-24T16:49:44.845Z,80.12
2017-11-24T16:52:13.204Z,79.63
2017-11-24T16:54:41.575Z,80.28
2017-11-24T16:57:09.932Z,79.05
2017-11-24T16:59:38.284Z,79.03
2017-11-24T17:02:07.487Z,78.84
2017-11-24T17:04:35.828Z,79.89
2017-11-24T17:07:04.200Z,79.59
2017-11-24T17:09:32.558Z,79.50
2017-11-24T17:12:00.903Z,79.19
2017-11-24T17:14:29.252Z,78.45
2017-11-24T17:16:57.617Z,79.79
2017-11-24T17:19:26.071Z,78.98
2017-11-24T17:21:54.416Z,79.31
2017-11-24T17:24:22.751Z,79.39
2017-11-24T17:26:51.098Z,79.04
2017-11-24T17:29:19.437Z,78.46
2017-11-24T17:31:47.832Z,78.78
2017-11-24T17:34:16.181Z,78.99
2017-11-24T17:36:44.533Z,78.98
2017-11-24T17:39:12.880Z,78.56
2017-11-24T17:41:41.213Z,78.78
2017-11-24T17:44:09.583Z,78.04
2017-11-24T17:46:37.921Z,78.30
2017-11-24T17:49:06.273Z,77.64
2017-11-24T17:51:34.618Z,77.48
2017-11-24T17:54:02.970Z,76.99
2017-11-24T17:56:31.332Z,76.71
2017-11-24T17:58:59.664Z,76.42
2017-11-24T18:01:28.000Z,75.54
2017-11-24T18:03:56.345Z,75.92
2017-11-24T18:06:24.688Z,76.53
2017-11-24T18:08:53.039Z,78.49
2017-11-24T18:11:21.373Z,78.05
2017-11-24T18:13:49.711Z,78.74
2017-11-24T18:16:18.065Z,78.82
2017-11-24T18:18:46.404Z,78.96
2017-11-24T18:21:14.774Z,78.29
2017-11-24T18:23:43.118Z,78.48
2017-11-24T18:26:11.474Z,79.49
2017-11-24T18:28:39.807Z,79.01
2017-11-24T18:31:08.157Z,79.99
2017-11-24T18:33:36.622Z,81.80
2017-11-24T18:36:04.960Z,81.26
2017-11-24T18:38:33.304Z,81.53
2017-11-24T18:41:01.645Z,80.67
2017-11-24T18:43:29.984Z,81.36
2017-11-24T18:45:58.468Z,80.49
2017-11-24T18:48:26.813Z,80.21
2017-11-24T18:50:55.153Z,79.75
2017-11-24T18:53:23.492Z,81.33
2017-11-24T18:55:51.832Z,81.71
2017-11-24T18:58:20.205Z,81.10
2017-11-24T19:00:48.554Z,81.62
2017-11-24T19:03:16.923Z,82.10
2017-11-24T19:05:45.271Z,82.21
2017-11-24T19:08:13.625Z,82.60
2017-11-24T19:10:42.100Z,83.21
2017-11-24T19:13:10.444Z,83.49
2017-11-24T19:15:38.791Z,83.68
2017-11-24T19:18:07.130Z,82.10
2017-11-24T19:20:35.466Z,81.13
2017-11-24T19:23:03.834Z,81.88
2017-11-24T19:25:32.170Z,82.41
2017-11-24T19:28:00.524Z,81.36
2017-11-24T19:30:28.866Z,81.61
2017-11-24T19:32:57.225Z,82.30
2017-11-24T19:35:25.592Z,81.86
2017-11-24T19:37:53.936Z,82.58
2017-11-24T19:40:23.073Z,81.31
2017-11-24T19:42:51.403Z,81.40
2017-11-24T19:45:19.746Z,81.58
2017-11-24T19:47:48.244Z,81.53
2017-11-24T19:50:16.597Z,82.08
2017-11-24T19:52:44.939Z,81.21
2017-11-24T19:55:13.275Z,81.51
2017-11-24T19:57:41.628Z,81.34
2017-11-24T20:00:10.019Z,82.51
2017-11-24T20:02:38.351Z,81.94
2017-11-24T20:05:06.697Z,81.77
2017-11-24T20:07:35.046Z,82.02
2017-11-24T20:10:03.410Z,82.79
2017-11-24T20:12:31.779Z,83.40
2017-11-24T20:15:00.132Z,83.98
2017-11-24T20:17:28.471Z,83.21
2017-11-24T20:19:56.828Z,82.49
2017-11-24T20:22:25.327Z,81.63
2017-11-24T20:24:53.720Z,82.47
2017-11-24T20:27:22.071Z,81.86
2017-11-24T20:29:50.421Z,82.01
2017-11-24T20:32:18.781Z,82.52
2017-11-24T20:34:47.122Z,82.52
2017-11-24T20:37:15.510Z,82.38
2017-11-24T20:39:43.866Z,82.70
2017-11-24T20:42:12.337Z,83.03
2017-11-24T20:44:40.675Z,82.76
2017-11-24T20:47:09.022Z,82.98
2017-11-24T20:49:37.381Z,81.74
2017-11-24T20:52:05.732Z,83.02
2017-11-24T20:54:34.104Z,82.33
2017-11-24T20:57:02.444Z,81.20
2017-11-24T20:59:30.789Z,81.04
2017-11-24T21:01:59.136Z,81.60
2017-11-24T21:04:27.502Z,83.17
2017-11-24T21:06:55.859Z,83.93
2017-11-24T21:09:24.205Z,83.69
2017-11-24T21:11:52.571Z,83.68
2017-11-24T21:14:20.908Z,82.92
2017-11-24T21:16:49.282Z,82.87
2017-11-24T21:19:17.621Z,81.82
2017-11-24T21:21:45.972Z,81.79
2017-11-24T21:24:14.332Z,83.15
2017-11-24T21:26:42.683Z,82.14
2017-11-24T21:29:11.026Z,81.53
2017-11-24T21:31:39.367Z,82.19
2017-11-24T21:34:07.703Z,81.97
2017-11-24T21:36:36.073Z,80.87
2017-11-24T21:39:04.412Z,80.16
2017-11-24T21:41:32.747Z,81.95
2017-11-24T21:44:01.091Z,81.82
2017-11-24T21:46:29.440Z,82.87
2017-11-24T21:48:57.847Z,82.09
2017-11-24T21:51:26.200Z,81.23
2017-11-24T21:53:54.541Z,81.32
2017-11-24T21:56:22.880Z,81.31
2017-11-24T21:58:51.226Z,81.49
2017-11-24T22:01:19.616Z,81.98
2017-11-24T22:03:48.009Z,82.06
2017-11-24T22:06:16.344Z,80.59
2017-11-24T22:08:44.684Z,79.95
2017-11-24T22:11:13.024Z,79.16
2017-11-24T22:13:41.400Z,79.97
2017-11-24T22:16:09.740Z,80.04
2017-11-24T22:18:38.078Z,79.93
2017-11-24T22:21:06.428Z,79.95
2017-11-24T22:23:34.901Z,79.70
2017-11-24T22:26:03.424Z,79.34
2017-11-24T22:28:31.782Z,80.12
2017-11-24T22:31:00.131Z,78.31
2017-11-24T22:33:28.456Z,79.33
2017-11-24T22:35:56.792Z,79.73
2017-11-24T22:38:25.262Z,79.14
2017-11-24T22:40:53.601Z,79.48
2017-11-24T22:43:21.944Z,79.33
2017-11-24T22:45:50.281Z,79.44
2017-11-24T22:48:18.623Z,79.39
2017-11-24T22:50:46.987Z,80.57
2017-11-24T22:53:15.332Z,80.92
2017-11-24T22:55:43.673Z,81.35
2017-11-24T22:58:12.016Z,82.14
2017-11-24T23:00:40.352Z,81.51
2017-11-24T23:03:08.811Z,80.10
2017-11-24T23:05:37.159Z,80.83
2017-11-24T23:08:05.509Z,80.27
2017-11-24T23:10:33.850Z,79.76
2017-11-24T23:13:02.192Z,80.48
2017-11-24T23:15:30.660Z,80.95
2017-11-24T23:17:59.001Z,80.29
2017-11-24T23:20:27.343Z,79.55
2017-11-24T23:22:55.684Z,80.51
2017-11-24T23:25:24.025Z,79.82
2017-11-24T23:27:52.709Z,78.38
2017-11-24T23:30:21.111Z,77.32
2017-11-24T23:32:49.444Z,77.73
2017-11-24T23:35:17.777Z,77.99
2017-11-24T23:37:46.122Z,77.75
2017-11-24T23:40:14.535Z,77.94
2017-11-24T23:42:42.886Z,79.53
2017-11-24T23:45:11.218Z,80.45
2017-11-24T23:47:39.551Z,79.65
2017-11-24T23:50:07.884Z,79.04
2017-11-24T23:52:36.249Z,78.78
2017-11-24T23:55:04.590Z,79.94
2017-11-24T23:57:32.924Z,79.98
